Time;durP1;ratioP1;P1;durP2;ratioP2;P2;SDS_P1;SDS_P2;PMS_P1;PMS_P2;Temp;Humidity;BMP_temperature;BMP_pressure;BME280_temperature;BME280_humidity;BME280_pressure;Samples;Min_cycle;Max_cycle;Signal;HPM_P1;HPM_P2
2022/02/01 00:02:15;;;;;;;17.98;11.35;;;;;;;22.20;25.42;93213.06;4940317;28;96867;-45
2022/02/01 00:04:55;;;;;;;16.30;11.73;;;;;;;22.45;25.36;93222.47;4939806;28;98341;-49
2022/02/01 00:20:17;;;;;;;24.98;14.40;;;;;;;20.50;24.94;93217.31;4939064;28;97778;-51
2022/02/01 00:36:03;;;;;;;18.73;11.05;;;;;;;21.11;26.00;93199.16;4941890;28;97148;-46
2022/02/01 00:38:49;;;;;;;18.33;10.68;;;;;;;21.10;25.90;93208.59;4939156;28;99780;-45
2022/02/01 00:41:14;;;;;;;19.00;10.35;;;;;;;21.09;26.22;93200.78;4942672;28;99344;-50
2022/02/01 00:43:40;;;;;;;16.23;10.00;;;;;;;21.32;25.47;93200.50;4943344;28;97269;-49
2022/02/01 00:46:05;;;;;;;18.58;10.68;;;;;;;21.32;25.65;93197.75;4946839;28;97027;-45
2022/02/01 00:48:31;;;;;;;19.63;11.80;;;;;;;21.05;25.83;93183.66;4943610;28;99711;-47
2022/02/01 00:50:57;;;;;;;20.13;12.43;;;;;;;21.00;25.75;93177.50;4944573;28;98956;-46
2022/02/01 00:53:27;;;;;;;17.02;11.60;;;;;;;20.95;25.79;93180.78;4944131;28;96996;-45
2022/02/01 00:55:56;;;;;;;19.17;11.55;;;;;;;20.96;25.93;93182.31;4943092;28;96905;-46
2022/02/01 00:58:22;;;;;;;19.00;12.57;;;;;;;20.87;25.88;93169.25;4938540;28;99261;-45
2022/02/01 01:00:48;;;;;;;20.60;13.05;;;;;;;20.71;25.79;93164.59;4941108;28;99306;-43
2022/02/01 01:03:14;;;;;;;18.08;12.77;;;;;;;20.56;25.91;93160.72;4939146;28;98883;-46
2022/02/01 01:05:39;;;;;;;22.33;13.60;;;;;;;20.58;26.04;93161.03;4935554;28;97233;-46
2022/02/01 01:08:05;;;;;;;19.00;12.30;;;;;;;20.49;26.58;93149.94;4940541;28;99702;-45
2022/02/01 01:10:30;;;;;;;20.20;11.68;;;;;;;20.42;27.27;93143.44;4940867;28;99512;-45
2022/02/01 01:13:16;;;;;;;22.40;12.02;;;;;;;20.44;28.32;93149.25;4939862;28;97158;-48
2022/02/01 01:15:49;;;;;;;21.50;12.13;;;;;;;20.61;28.26;93168.41;4941366;28;96935;-47
2022/02/01 01:53:45;;;;;;;16.67;11.05;;;;;;;20.85;26.81;93124.25;4948532;28;96942;-44
2022/02/01 01:56:11;;;;;;;18.27;11.48;;;;;;;20.95;26.91;93109.44;4955496;28;97885;-47
2022/02/01 01:58:37;;;;;;;19.13;12.00;;;;;;;20.89;26.57;93111.22;4944496;28;96947;-44
2022/02/01 02:01:11;;;;;;;19.45;12.63;;;;;;;20.86;26.66;93106.59;4945270;28;99606;-45
2022/02/01 02:03:38;;;;;;;20.65;14.02;;;;;;;20.88;26.61;93115.16;4945493;28;100012;-44
2022/02/01 02:06:04;;;;;;;23.45;15.70;;;;;;;20.85;26.42;93105.81;4945039;28;96993;-45
2022/02/01 02:08:30;;;;;;;21.45;14.93;;;;;;;20.78;26.22;93110.75;4944894;28;96869;-45
2022/02/01 02:11:07;;;;;;;22.50;15.80;;;;;;;20.83;26.19;93113.72;4945835;28;99876;-46
2022/02/01 02:16:56;;;;;;;24.88;17.75;;;;;;;20.70;26.31;93094.47;4934878;28;97273;-45
2022/02/01 02:19:22;;;;;;;26.52;18.15;;;;;;;20.41;26.87;93100.78;4954528;28;97085;-48
2022/02/01 02:21:49;;;;;;;21.45;14.80;;;;;;;20.27;27.06;93101.19;4954778;28;99590;-50
2022/02/01 02:24:15;;;;;;;18.80;13.73;;;;;;;20.41;26.91;93103.50;4944637;28;98951;-46
2022/02/01 02:26:41;;;;;;;18.98;13.05;;;;;;;20.22;26.87;93093.50;4945127;28;96767;-48
2022/02/01 02:29:07;;;;;;;17.38;12.82;;;;;;;20.27;26.58;93090.22;4959014;28;96808;-49
2022/02/01 02:31:33;;;;;;;18.98;13.32;;;;;;;20.29;27.12;93090.56;4954124;28;99968;-50
2022/02/01 02:34:07;;;;;;;19.25;13.77;;;;;;;20.20;26.83;93084.94;4954537;28;99159;-47
2022/02/01 02:36:35;;;;;;;21.70;14.52;;;;;;;20.20;26.88;93095.91;4952564;28;96785;-48
2022/02/01 02:39:09;;;;;;;19.25;13.80;;;;;;;20.13;26.92;93091.38;4955051;28;96756;-50
2022/02/01 02:41:37;;;;;;;20.75;14.52;;;;;;;20.03;26.76;93093.22;4954438;28;99514;-49
2022/02/01 02:46:49;;;;;;;19.02;13.38;;;;;;;19.99;26.99;93087.06;4952044;28;96645;-46
2022/02/01 02:49:17;;;;;;;20.73;14.60;;;;;;;20.10;26.70;93082.06;4955292;28;97689;-47
2022/02/01 02:51:42;;;;;;;17.10;11.50;;;;;;;20.09;26.98;93086.00;4954081;28;99494;-48
2022/02/01 02:54:09;;;;;;;17.60;11.63;;;;;;;20.01;26.71;93095.63;4954528;28;99804;-47
2022/02/01 02:56:35;;;;;;;16.52;11.32;;;;;;;20.05;26.76;93090.81;4954696;28;96725;-45
2022/02/01 02:59:01;;;;;;;17.20;11.20;;;;;;;19.83;27.11;93096.81;4945765;28;97547;-46
2022/02/01 03:01:27;;;;;;;18.38;12.90;;;;;;;19.91;26.76;93091.19;4943119;28;99478;-50
2022/02/01 03:03:53;;;;;;;17.60;12.32;;;;;;;19.99;26.85;93081.56;4944552;28;99319;-46
2022/02/01 03:06:18;;;;;;;19.88;14.65;;;;;;;20.01;26.95;93090.13;4942370;28;96725;-46
2022/02/01 03:08:44;;;;;;;22.00;17.67;;;;;;;20.40;27.02;93082.78;4942777;28;98413;-44
2022/02/01 03:11:12;;;;;;;24.00;16.67;;;;;;;20.65;25.97;93081.28;4954021;28;99329;-46
2022/02/01 03:13:40;;;;;;;21.25;15.85;;;;;;;20.62;25.98;93082.16;4953953;28;99379;-43
2022/02/01 03:16:28;;;;;;;20.33;14.68;;;;;;;20.62;26.08;93075.91;4954170;28;97247;-45
2022/02/01 03:21:37;;;;;;;20.23;14.25;;;;;;;20.68;25.68;93079.63;4952286;28;97185;-43
2022/02/01 03:24:03;;;;;;;20.05;13.65;;;;;;;20.63;25.91;93078.22;4954171;28;99349;-43
2022/02/01 03:26:29;;;;;;;19.83;14.25;;;;;;;20.68;25.75;93079.63;4953483;28;96872;-44
2022/02/01 03:28:54;;;;;;;20.33;14.20;;;;;;;20.70;26.22;93082.72;4952490;28;97103;-43
2022/02/01 03:31:19;;;;;;;17.95;12.85;;;;;;;20.58;26.60;93078.75;4951999;28;99870;-43
2022/02/01 03:33:45;;;;;;;17.45;12.23;;;;;;;20.57;26.26;93071.72;4952256;28;99478;-46
2022/02/01 03:36:11;;;;;;;16.02;11.48;;;;;;;20.59;26.55;93072.06;4952366;28;97156;-47
2022/02/01 03:38:36;;;;;;;15.00;11.45;;;;;;;20.58;26.45;93065.03;4952141;28;96918;-44
2022/02/01 03:41:02;;;;;;;17.20;11.48;;;;;;;20.54;26.75;93064.38;4952057;28;99712;-42
2022/02/01 03:43:27;;;;;;;16.70;11.35;;;;;;;20.56;26.75;93056.47;4954474;28;96981;-43
2022/02/01 03:45:53;;;;;;;13.70;11.10;;;;;;;20.55;26.38;93057.69;4954581;28;96691;-43
2022/02/01 03:48:18;;;;;;;19.50;11.77;;;;;;;20.47;26.81;93042.66;4954158;28;97705;-43
2022/02/01 03:50:43;;;;;;;18.13;11.52;;;;;;;20.52;26.65;93044.84;4953882;28;99957;-42
2022/02/01 03:53:09;;;;;;;17.27;10.85;;;;;;;20.46;26.48;93041.09;4953897;28;99409;-42
2022/02/01 03:55:35;;;;;;;15.27;10.38;;;;;;;20.64;26.33;93044.09;4954244;28;96578;-43
2022/02/01 03:58:01;;;;;;;14.23;10.18;;;;;;;20.67;26.08;93045.97;4954740;28;96908;-43
2022/02/01 04:00:27;;;;;;;16.15;10.35;;;;;;;20.71;26.21;93041.13;4953732;28;99526;-44
2022/02/01 04:02:53;;;;;;;15.02;10.73;;;;;;;20.78;25.99;93023.72;4953526;28;99858;-48
2022/02/01 04:05:18;;;;;;;13.98;10.27;;;;;;;20.85;26.32;93028.22;4953198;28;96658;-43
2022/02/01 04:07:47;;;;;;;15.55;10.18;;;;;;;20.76;26.60;93023.34;4954093;28;96530;-43
2022/02/01 04:10:13;;;;;;;16.10;10.35;;;;;;;20.85;26.31;93028.22;4953687;28;99374;-43
2022/02/01 04:12:40;;;;;;;15.25;9.52;;;;;;;20.92;26.22;93021.72;4953684;28;99288;-43
2022/02/01 04:15:07;;;;;;;13.85;8.80;;;;;;;20.88;26.41;93028.09;4953997;28;96945;-43
2022/02/01 04:17:32;;;;;;;15.25;9.68;;;;;;;20.88;26.68;93027.34;4952702;28;96654;-43
2022/02/01 04:19:58;;;;;;;13.75;9.75;;;;;;;20.88;26.75;93027.34;4953601;28;98975;-44
2022/02/01 04:22:23;;;;;;;13.70;10.18;;;;;;;20.88;26.45;93021.84;4953538;28;99260;-42
2022/02/01 04:24:48;;;;;;;13.25;8.95;;;;;;;20.85;26.35;93028.97;4953513;28;97082;-43
2022/02/01 04:27:30;;;;;;;15.05;9.50;;;;;;;20.80;26.44;93020.53;4953874;28;96805;-43
2022/02/01 04:30:05;;;;;;;13.93;9.98;;;;;;;20.77;26.55;93018.66;4952995;28;99790;-43
2022/02/01 04:32:32;;;;;;;13.85;9.60;;;;;;;20.75;26.62;93024.56;4953561;28;99114;-44
2022/02/01 04:34:59;;;;;;;13.85;8.80;;;;;;;20.66;26.56;93019.75;4953888;28;96602;-45
2022/02/01 04:37:26;;;;;;;14.60;9.43;;;;;;;20.60;26.72;93024.22;4952891;28;97055;-43
2022/02/01 04:39:52;;;;;;;12.82;8.73;;;;;;;20.63;26.89;93023.34;4953150;28;99611;-46
2022/02/01 04:42:18;;;;;;;13.77;9.80;;;;;;;20.62;26.47;93026.53;4953336;28;99202;-44
2022/02/01 04:44:43;;;;;;;15.52;9.18;;;;;;;20.63;26.56;93034.31;4953507;28;96684;-43
2022/02/01 04:47:08;;;;;;;13.38;9.82;;;;;;;20.64;26.81;93030.38;4954097;28;96865;-43
2022/02/01 04:49:34;;;;;;;13.63;9.23;;;;;;;20.61;26.36;93039.47;4953435;28;97878;-45
2022/02/01 04:51:59;;;;;;;14.70;9.27;;;;;;;20.62;26.70;93038.28;4953102;28;99382;-43
2022/02/01 04:54:25;;;;;;;16.38;8.45;;;;;;;20.51;26.84;93041.34;4951592;28;96738;-43
2022/02/01 04:56:50;;;;;;;13.57;8.52;;;;;;;20.55;26.45;93043.97;4953245;28;96997;-42
2022/02/01 04:59:16;;;;;;;12.63;8.52;;;;;;;20.56;26.50;93053.75;4952893;28;98899;-43
2022/02/01 05:01:41;;;;;;;13.90;9.07;;;;;;;20.51;26.45;93051.53;4952736;28;99376;-42
2022/02/01 05:04:07;;;;;;;13.23;8.32;;;;;;;20.52;26.53;93061.31;4952915;28;96653;-43
2022/02/01 05:06:33;;;;;;;13.15;9.13;;;;;;;20.50;26.55;93052.75;4953137;28;96909;-43
2022/02/01 05:08:58;;;;;;;13.77;9.23;;;;;;;20.51;26.48;93065.25;4953000;28;99478;-44
2022/02/01 05:11:24;;;;;;;13.40;8.75;;;;;;;20.47;26.38;93059.09;4953216;28;98913;-44
2022/02/01 05:14:08;;;;;;;15.52;9.48;;;;;;;20.41;26.50;93054.16;4953107;28;96806;-44
2022/02/01 05:19:09;;;;;;;17.15;10.18;;;;;;;20.44;26.56;93045.06;4951040;28;97195;-46
2022/02/01 05:21:37;;;;;;;15.18;10.23;;;;;;;20.43;26.65;93057.22;4952842;28;99696;-43
2022/02/01 05:24:03;;;;;;;18.55;11.30;;;;;;;20.42;26.39;93057.69;4953103;28;96571;-44
2022/02/01 05:26:30;;;;;;;18.98;12.18;;;;;;;20.38;26.30;93057.75;4953145;28;96921;-44
2022/02/01 05:28:56;;;;;;;19.73;12.00;;;;;;;20.37;26.56;93061.72;4953984;28;100020;-44
2022/02/01 05:31:23;;;;;;;18.35;12.27;;;;;;;20.38;26.44;93068.72;4956316;28;98563;-44
2022/02/01 05:33:48;;;;;;;18.33;11.70;;;;;;;20.38;26.46;93063.25;4956298;28;96659;-44
2022/02/01 05:36:14;;;;;;;20.30;12.45;;;;;;;20.37;26.49;93072.69;4956695;28;96906;-44
2022/02/01 05:38:39;;;;;;;17.38;11.45;;;;;;;20.33;26.36;93072.00;4955747;28;99301;-44
2022/02/01 05:41:06;;;;;;;17.45;11.63;;;;;;;20.32;26.54;93080.69;4956021;28;99239;-44
2022/02/01 05:43:31;;;;;;;18.77;10.45;;;;;;;20.18;27.23;93073.63;4954611;28;96810;-49
2022/02/01 05:45:58;;;;;;;17.27;10.57;;;;;;;20.37;26.96;93071.94;4956318;28;96892;-44
2022/02/01 05:48:25;;;;;;;16.30;9.43;;;;;;;20.48;27.05;93077.09;4955857;28;99361;-44
2022/02/01 05:50:56;;;;;;;16.70;10.55;;;;;;;20.55;26.45;93082.38;4954770;28;99442;-44
2022/02/01 05:53:21;;;;;;;17.43;10.50;;;;;;;20.57;26.58;93090.94;4956244;28;96844;-45
2022/02/01 05:55:48;;;;;;;17.20;10.60;;;;;;;20.60;26.58;93090.06;4954811;28;97575;-47
2022/02/01 05:58:14;;;;;;;15.13;9.95;;;;;;;20.49;26.82;93093.13;4954659;28;99294;-45
2022/02/01 06:00:40;;;;;;;15.88;10.43;;;;;;;20.44;27.25;93097.16;4955793;28;99726;-47
2022/02/01 06:03:06;;;;;;;13.52;8.75;;;;;;;20.49;27.45;93101.34;4954929;28;97293;-46
2022/02/01 06:05:31;;;;;;;14.30;9.02;;;;;;;20.58;27.10;93108.94;4955376;28;96865;-45
2022/02/01 06:07:57;;;;;;;15.20;9.30;;;;;;;20.67;26.97;93106.31;4954892;28;99656;-45
2022/02/01 06:10:22;;;;;;;16.85;9.95;;;;;;;20.67;27.05;93111.81;4954976;28;99677;-47
2022/02/01 06:12:48;;;;;;;15.73;8.93;;;;;;;20.66;27.24;93128.69;4955800;28;96855;-47
2022/02/01 06:15:15;;;;;;;15.02;9.15;;;;;;;20.66;26.98;93132.22;4955738;28;96936;-47
2022/02/01 06:17:41;;;;;;;17.80;10.02;;;;;;;20.63;27.07;93138.56;4955344;28;99791;-46
2022/02/01 06:20:07;;;;;;;16.27;10.07;;;;;;;20.73;26.63;93147.69;4955155;28;99653;-45
2022/02/01 06:22:33;;;;;;;17.75;10.73;;;;;;;20.55;26.89;93154.47;4955547;28;96695;-45
2022/02/01 06:24:58;;;;;;;17.05;10.45;;;;;;;20.54;26.87;93157.63;4955679;28;96997;-47
2022/02/01 06:27:25;;;;;;;16.00;10.57;;;;;;;20.59;26.61;93173.56;4955128;28;99579;-48
2022/02/01 06:29:50;;;;;;;18.63;11.77;;;;;;;20.52;26.88;93187.47;4955118;28;99502;-46
2022/02/01 06:32:16;;;;;;;17.63;11.18;;;;;;;20.53;26.47;93194.50;4955033;28;96656;-49
2022/02/01 06:34:42;;;;;;;17.75;10.52;;;;;;;20.56;26.64;93188.94;4955467;28;96997;-48
2022/02/01 06:37:07;;;;;;;19.27;11.18;;;;;;;20.63;26.28;93198.91;4954725;28;99832;-45
2022/02/01 06:39:33;;;;;;;17.58;11.02;;;;;;;20.53;26.64;93199.97;4954119;28;99548;-47
2022/02/01 06:41:59;;;;;;;17.38;11.00;;;;;;;20.52;26.47;93184.72;4955374;28;96726;-51
2022/02/01 06:44:24;;;;;;;17.27;11.25;;;;;;;20.47;26.66;93196.22;4955265;28;96909;-48
2022/02/01 06:46:50;;;;;;;17.30;10.02;;;;;;;20.51;26.72;93194.16;4954902;28;99320;-49
2022/02/01 06:49:15;;;;;;;17.33;11.00;;;;;;;20.49;26.61;93204.78;4955330;28;99238;-45
2022/02/01 06:51:42;;;;;;;15.75;10.32;;;;;;;20.44;26.36;93215.09;4955193;28;96722;-47
2022/02/01 06:54:08;;;;;;;16.48;10.52;;;;;;;20.51;26.29;93207.88;4955035;28;97032;-47
2022/02/01 06:56:34;;;;;;;17.40;10.38;;;;;;;20.56;26.37;93204.59;4954215;28;99441;-46
2022/02/01 06:59:00;;;;;;;17.73;11.05;;;;;;;20.54;26.10;93207.00;4954748;28;98948;-47
2022/02/01 07:01:26;;;;;;;16.73;10.55;;;;;;;20.57;26.66;93197.91;4955173;28;96858;-48
2022/02/01 07:03:51;;;;;;;18.70;11.18;;;;;;;20.65;26.37;93210.22;4954876;28;96882;-49
2022/02/01 07:06:17;;;;;;;15.65;10.80;;;;;;;20.67;26.26;93209.78;4954517;28;100168;-47
2022/02/01 07:08:44;;;;;;;15.80;10.23;;;;;;;20.64;26.38;93211.44;4954822;28;99123;-47
2022/02/01 07:11:10;;;;;;;17.67;11.10;;;;;;;20.67;26.30;93218.78;4954865;28;96945;-47
2022/02/01 07:13:36;;;;;;;16.80;11.20;;;;;;;20.62;26.29;93207.56;4955347;28;97039;-47
2022/02/01 07:16:02;;;;;;;17.92;10.77;;;;;;;20.67;26.35;93227.03;4954560;28;99528;-48
2022/02/01 07:18:28;;;;;;;16.38;10.77;;;;;;;20.72;26.49;93234.72;4954575;28;98813;-46
2022/02/01 07:20:53;;;;;;;16.08;10.05;;;;;;;20.74;26.20;93232.31;4954607;28;96710;-48
2022/02/01 07:23:23;;;;;;;19.33;11.38;;;;;;;20.82;25.79;93235.66;4954644;28;96976;-47
2022/02/01 07:25:48;;;;;;;14.35;10.18;;;;;;;20.83;26.18;93233.69;4954029;28;99743;-46
2022/02/01 07:28:16;;;;;;;17.50;11.48;;;;;;;20.78;26.30;93236.97;4954325;28;99251;-50
2022/02/01 07:30:42;;;;;;;17.95;11.35;;;;;;;20.69;26.20;93246.56;4954563;28;96766;-49
2022/02/01 07:33:08;;;;;;;16.27;10.93;;;;;;;20.57;26.16;93233.56;4954764;28;97042;-49
2022/02/01 07:35:33;;;;;;;19.13;10.80;;;;;;;20.69;25.84;93238.34;4954041;28;99283;-50
2022/02/01 07:38:00;;;;;;;16.25;9.70;;;;;;;20.68;26.15;93247.00;4954119;28;97326;-47
2022/02/01 07:40:25;;;;;;;20.52;11.60;;;;;;;20.72;26.06;93245.69;4954211;28;96760;-45
2022/02/01 07:42:51;;;;;;;17.15;11.27;;;;;;;20.70;25.88;93242.63;4954383;28;96910;-46
2022/02/01 07:45:18;;;;;;;17.08;11.77;;;;;;;20.72;25.87;93245.69;4953669;28;99392;-47
2022/02/01 07:47:44;;;;;;;16.27;11.00;;;;;;;20.73;26.00;93236.25;4953955;28;99508;-50
2022/02/01 07:50:09;;;;;;;16.25;11.30;;;;;;;20.70;26.01;93248.09;4954515;28;96548;-46
2022/02/01 07:52:35;;;;;;;17.92;11.45;;;;;;;20.72;26.02;93251.19;4954176;28;96982;-46
2022/02/01 07:55:01;;;;;;;16.73;10.88;;;;;;;20.71;25.82;93254.34;4953496;28;99854;-47
2022/02/01 07:57:26;;;;;;;19.23;11.38;;;;;;;20.66;25.58;93252.91;4953760;28;100290;-50
2022/02/01 07:59:53;;;;;;;18.83;11.98;;;;;;;20.66;25.87;93255.66;4954299;28;96701;-49
2022/02/01 08:02:20;;;;;;;18.75;11.88;;;;;;;20.80;25.69;93262.75;4954623;28;97337;-47
2022/02/01 08:04:47;;;;;;;16.88;11.27;;;;;;;20.70;25.86;93253.59;4953504;28;99341;-49
2022/02/01 08:07:13;;;;;;;18.75;12.70;;;;;;;20.72;25.75;93251.19;4953820;28;99542;-50
2022/02/01 08:09:42;;;;;;;18.52;12.38;;;;;;;20.67;25.94;93259.94;4953442;28;96791;-45
2022/02/01 08:20:21;;;;;;;16.07;10.50;;;;;;;20.72;25.69;93258.63;4954160;28;96928;-46
2022/02/01 08:25:13;;;;;;;19.30;12.52;;;;;;;20.67;25.60;93248.97;4953616;28;97186;-52
2022/02/01 08:27:41;;;;;;;19.92;11.75;;;;;;;20.70;25.76;93258.28;4954098;28;97882;-46
2022/02/01 08:30:08;;;;;;;18.75;11.93;;;;;;;20.70;25.68;93252.81;4936634;28;96799;-48
2022/02/01 08:32:33;;;;;;;19.30;12.43;;;;;;;20.67;25.83;93254.47;4953634;28;96887;-48
2022/02/01 08:34:59;;;;;;;19.50;12.20;;;;;;;20.66;25.54;93252.91;4952813;28;99584;-47
2022/02/01 08:37:24;;;;;;;20.02;12.85;;;;;;;20.63;25.55;93242.03;4952869;28;99304;-48
2022/02/01 08:39:50;;;;;;;20.20;12.85;;;;;;;20.65;25.56;93251.38;4953766;28;96830;-45
2022/02/01 08:42:16;;;;;;;18.25;12.43;;;;;;;20.53;25.75;93243.88;4953728;28;96918;-49
2022/02/01 08:44:43;;;;;;;21.70;13.23;;;;;;;20.63;25.72;93242.81;4953200;28;100244;-45
2022/02/01 08:47:09;;;;;;;18.50;12.27;;;;;;;20.65;25.48;93254.13;4953219;28;99619;-49
2022/02/01 08:49:34;;;;;;;17.52;12.23;;;;;;;20.64;25.61;93247.09;4953320;28;96788;-45
2022/02/01 08:52:04;;;;;;;18.70;12.02;;;;;;;20.65;25.66;93251.38;4953751;28;96922;-48
2022/02/01 08:54:33;;;;;;;19.00;12.35;;;;;;;20.67;25.58;93242.69;4953045;28;99738;-46
2022/02/01 08:59:42;;;;;;;21.92;13.85;;;;;;;20.62;25.78;93246.75;4952605;28;96723;-46
2022/02/01 09:02:08;;;;;;;23.08;13.27;;;;;;;20.63;25.42;93253.00;4952913;28;97797;-45
2022/02/01 09:04:33;;;;;;;18.90;11.70;;;;;;;20.53;25.66;93239.16;4952542;28;100173;-47
2022/02/01 09:06:59;;;;;;;20.38;13.15;;;;;;;20.55;25.73;93247.72;4952725;28;99513;-47
2022/02/01 09:09:26;;;;;;;19.83;12.88;;;;;;;20.62;25.60;93252.25;4953375;28;96738;-47
2022/02/01 09:11:51;;;;;;;19.05;12.52;;;;;;;20.57;25.64;93239.84;4952090;28;96918;-44
2022/02/01 09:14:17;;;;;;;20.02;12.98;;;;;;;20.67;25.78;93248.97;4952777;28;99653;-45
2022/02/01 09:16:42;;;;;;;18.90;12.52;;;;;;;20.67;25.59;93240.75;4952947;28;99392;-46
2022/02/01 09:19:08;;;;;;;19.40;13.85;;;;;;;20.65;25.71;93251.38;4953014;28;96858;-47
2022/02/01 09:21:34;;;;;;;20.75;14.43;;;;;;;20.69;25.67;93243.81;4953003;28;96955;-47
2022/02/01 09:23:59;;;;;;;21.55;12.80;;;;;;;20.64;25.85;93249.84;4951963;28;99768;-46
2022/02/01 09:26:25;;;;;;;20.92;13.95;;;;;;;20.70;25.89;93253.59;4952478;28;99765;-49
2022/02/01 09:28:50;;;;;;;22.17;12.65;;;;;;;20.66;25.61;93258.41;4953150;28;96630;-49
2022/02/01 09:31:16;;;;;;;18.80;13.13;;;;;;;20.63;25.86;93259.28;4952647;28;96917;-45
2022/02/01 09:33:42;;;;;;;17.85;12.48;;;;;;;20.71;25.65;93255.13;4952558;28;99790;-48
2022/02/01 09:36:07;;;;;;;22.33;13.52;;;;;;;20.69;25.69;93252.06;4952557;28;99266;-47
2022/02/01 09:38:34;;;;;;;21.15;13.68;;;;;;;20.72;25.37;93255.88;4952469;28;96949;-46
2022/02/01 09:41:00;;;;;;;20.60;13.30;;;;;;;20.74;25.57;93253.50;4953280;28;97530;-46
2022/02/01 09:43:26;;;;;;;19.80;12.88;;;;;;;20.65;25.63;93245.88;4952211;28;99769;-47
2022/02/01 09:45:58;;;;;;;20.63;13.40;;;;;;;20.64;25.75;93249.84;4952613;28;97965;-46
2022/02/01 09:48:23;;;;;;;;;;;;;;;20.76;25.57;93253.81;4952922;28;96769;-46
2022/02/01 09:50:49;;;;;;;19.23;13.00;;;;;;;20.65;25.52;93251.38;4952966;28;97087;-48
2022/02/01 09:53:15;;;;;;;22.20;14.38;;;;;;;20.69;25.73;93257.53;4952236;28;99429;-47
2022/02/01 09:55:41;;;;;;;20.73;13.63;;;;;;;20.67;25.68;93243.50;4952441;28;99741;-46
2022/02/01 09:58:07;;;;;;;21.85;13.93;;;;;;;20.67;25.55;93246.22;4952541;28;96742;-49
2022/02/01 10:00:36;;;;;;;20.25;13.80;;;;;;;20.67;25.45;93248.97;4952513;28;96989;-48
2022/02/01 10:03:03;;;;;;;20.67;13.32;;;;;;;20.67;25.65;93254.47;4952273;28;99870;-50
2022/02/01 10:05:29;;;;;;;20.73;14.45;;;;;;;20.67;25.38;93253.69;4950899;28;98992;-47
2022/02/01 10:07:56;;;;;;;21.65;14.20;;;;;;;20.69;25.55;93243.81;4952336;28;96725;-48
2022/02/01 10:10:26;;;;;;;21.10;14.25;;;;;;;20.65;25.67;93250.59;4952383;28;96906;-47
2022/02/01 10:13:07;;;;;;;24.75;16.33;;;;;;;20.66;25.37;93235.69;4951636;28;99866;-48
2022/02/01 10:15:34;;;;;;;24.33;15.65;;;;;;;20.66;25.63;93239.19;4953759;28;99387;-47
2022/02/01 10:18:02;;;;;;;25.13;16.20;;;;;;;20.53;25.40;93244.66;4954641;28;96931;-45
2022/02/01 10:20:35;;;;;;;22.77;15.43;;;;;;;20.42;25.55;93233.94;4955998;28;97786;-47
2022/02/01 10:23:00;;;;;;;24.95;16.40;;;;;;;20.52;25.36;93232.13;4955417;28;99490;-48
2022/02/01 10:25:29;;;;;;;26.33;16.60;;;;;;;20.59;25.37;93231.16;4955508;28;98093;-45
2022/02/01 10:27:59;;;;;;;22.70;15.82;;;;;;;20.60;25.46;93229.97;4955654;28;96745;-45
2022/02/01 10:30:36;;;;;;;25.58;16.13;;;;;;;20.55;25.51;93230.50;4955913;28;96832;-46
2022/02/01 10:38:09;;;;;;;27.42;16.73;;;;;;;20.58;25.79;93243.34;4954705;28;96859;-50
2022/02/01 10:40:47;;;;;;;25.92;15.73;;;;;;;20.52;25.68;93232.13;4955686;28;96679;-48
2022/02/01 10:43:16;;;;;;;25.40;16.52;;;;;;;20.54;25.70;93234.44;4955040;28;99418;-52
2022/02/01 10:45:42;;;;;;;23.27;14.35;;;;;;;20.59;25.71;93236.66;4954925;28;99703;-48
2022/02/01 10:48:14;;;;;;;24.90;16.38;;;;;;;20.61;25.85;93247.97;4955224;28;96646;-47
2022/02/01 10:50:39;;;;;;;26.20;15.68;;;;;;;20.61;25.79;93256.19;4954922;28;96894;-48
2022/02/01 10:53:17;;;;;;;24.85;16.17;;;;;;;20.67;25.71;93248.97;4955221;28;99438;-46
2022/02/01 10:55:43;;;;;;;24.35;14.85;;;;;;;20.56;25.84;93238.31;4954126;28;99439;-49
2022/02/01 10:58:09;;;;;;;21.98;13.93;;;;;;;20.56;25.67;93243.00;4954875;28;96602;-50
2022/02/01 11:00:35;;;;;;;24.80;14.68;;;;;;;20.62;25.75;93257.72;4954920;28;96919;-49
2022/02/01 11:03:00;;;;;;;25.17;14.13;;;;;;;20.63;25.63;93251.03;4954374;28;99601;-47
2022/02/01 11:05:25;;;;;;;22.13;15.05;;;;;;;20.58;25.55;93254.31;4953019;28;99227;-46
2022/02/01 11:07:51;;;;;;;20.77;13.60;;;;;;;20.56;25.56;93265.72;4937307;28;96779;-46
2022/02/01 11:10:17;;;;;;;23.83;14.75;;;;;;;20.63;25.61;93259.28;4954933;28;97235;-48
2022/02/01 11:12:42;;;;;;;20.63;13.05;;;;;;;20.59;25.72;93258.59;4953504;28;99563;-49
2022/02/01 11:15:20;;;;;;;19.08;12.38;;;;;;;20.55;25.72;93257.91;4954511;28;99263;-48
2022/02/01 11:17:47;;;;;;;21.95;13.18;;;;;;;20.53;25.65;93243.88;4954591;28;96666;-51
2022/02/01 11:20:13;;;;;;;21.08;13.75;;;;;;;20.52;25.63;93247.81;4955170;28;97088;-47
2022/02/01 11:22:42;;;;;;;18.70;12.25;;;;;;;20.56;25.56;93246.53;4954370;28;100033;-47
2022/02/01 11:25:23;;;;;;;20.35;12.52;;;;;;;20.57;25.86;93244.53;4952797;28;99227;-48
2022/02/01 11:28:13;;;;;;;19.40;11.88;;;;;;;20.60;25.77;93240.94;4954219;28;96760;-47
2022/02/01 11:30:44;;;;;;;16.48;11.27;;;;;;;20.64;25.82;93244.34;4954680;28;96721;-45
2022/02/01 11:33:10;;;;;;;16.92;11.25;;;;;;;20.70;25.61;93247.31;4954165;28;99468;-47
2022/02/01 11:35:36;;;;;;;17.92;11.93;;;;;;;20.67;25.69;93242.69;4954268;28;99354;-48
2022/02/01 11:38:13;;;;;;;18.38;12.32;;;;;;;20.64;25.56;93249.06;4954402;28;96933;-48
2022/02/01 11:40:46;;;;;;;19.20;11.77;;;;;;;20.66;25.64;93252.91;4954510;28;96920;-46
2022/02/01 11:43:12;;;;;;;19.20;12.15;;;;;;;20.70;25.73;93256.34;4954064;28;100165;-49
2022/02/01 11:45:39;;;;;;;17.23;11.07;;;;;;;20.66;25.66;93258.41;4954506;28;99616;-50
2022/02/01 11:48:21;;;;;;;17.83;11.18;;;;;;;20.66;25.74;93241.16;4954397;28;96881;-46
2022/02/01 11:50:49;;;;;;;18.83;11.73;;;;;;;20.68;25.59;93238.75;4954456;28;96894;-48
2022/02/01 11:53:21;;;;;;;16.80;10.07;;;;;;;20.62;25.79;93241.28;4953702;28;97918;-46
2022/02/01 11:55:47;;;;;;;18.75;10.48;;;;;;;20.70;25.75;93247.31;4954121;28;97807;-47
2022/02/01 11:58:13;;;;;;;16.55;10.50;;;;;;;20.67;25.68;93248.19;4954132;28;96958;-47
2022/02/01 12:00:39;;;;;;;16.52;10.30;;;;;;;20.66;25.60;93258.41;4954153;28;96898;-49
2022/02/01 12:03:05;;;;;;;17.35;10.05;;;;;;;20.65;25.55;93267.84;4953681;28;99746;-48
2022/02/01 12:05:34;;;;;;;15.85;9.73;;;;;;;20.64;25.74;93277.28;4953403;28;99543;-48
2022/02/01 12:08:07;;;;;;;15.20;9.75;;;;;;;20.65;25.49;93278.81;4954610;28;97542;-50
2022/02/01 12:10:42;;;;;;;14.45;9.77;;;;;;;20.55;25.58;93268.88;4954739;28;96749;-49
2022/02/01 12:13:09;;;;;;;15.27;9.60;;;;;;;20.51;25.79;93262.72;4953750;28;99502;-50
2022/02/01 12:15:36;;;;;;;16.00;9.57;;;;;;;20.61;25.50;93261.69;4953980;28;97733;-48
2022/02/01 12:18:08;;;;;;;15.32;9.15;;;;;;;20.61;25.63;93271.88;4953474;28;96593;-50
2022/02/01 12:20:37;;;;;;;12.93;8.88;;;;;;;20.54;25.66;93268.13;4953831;28;96977;-49
2022/02/01 12:23:15;;;;;;;14.40;8.68;;;;;;;20.53;25.66;93276.78;4953813;28;97197;-47
2022/02/01 12:25:40;;;;;;;12.63;9.18;;;;;;;20.50;25.61;93283.13;4953662;28;99852;-49
2022/02/01 12:28:20;;;;;;;11.07;8.10;;;;;;;20.52;25.61;93275.22;4954141;28;97410;-48
2022/02/01 12:30:45;;;;;;;14.18;9.02;;;;;;;20.54;25.74;93281.84;4953933;28;96733;-46
2022/02/01 12:33:23;;;;;;;13.80;8.52;;;;;;;20.53;25.60;93290.50;4953512;28;99789;-46
2022/02/01 12:35:53;;;;;;;13.65;8.63;;;;;;;20.51;25.60;93290.16;4953796;28;99649;-48
2022/02/01 12:38:22;;;;;;;16.75;8.55;;;;;;;20.51;25.58;93295.63;4952259;28;97003;-46
2022/02/01 12:40:52;;;;;;;14.60;7.90;;;;;;;20.54;25.46;93300.25;4952179;28;96970;-51
2022/02/01 12:43:22;;;;;;;11.07;7.97;;;;;;;20.53;25.59;93304.22;4952797;28;99622;-48
2022/02/01 12:46:05;;;;;;;12.52;7.85;;;;;;;20.49;25.72;93315.28;4952965;28;99477;-47
2022/02/01 12:48:31;;;;;;;10.98;7.82;;;;;;;20.44;25.50;93308.31;4953502;28;96690;-49
2022/02/01 12:51:04;;;;;;;13.55;7.93;;;;;;;20.48;25.46;93321.19;4953419;28;96890;-52
2022/02/01 12:53:47;;;;;;;10.45;7.72;;;;;;;20.48;25.55;93334.91;4953263;28;97290;-51